Time;durP1;ratioP1;P1;durP2;ratioP2;P2;SDS_P1;SDS_P2;PMS_P1;PMS_P2;Temp;Humidity;BMP_temperature;BMP_pressure;BME280_temperature;BME280_humidity;BME280_pressure;Samples;Min_cycle;Max_cycle;Signal;HPM_P1;HPM_P2
2023/04/02 00:00:35;;;;;;;2.72;2.53;;;8.50;99.90;;;;;;4985190;28;20018;-86
2023/04/02 00:03:04;;;;;;;2.70;2.50;;;8.50;99.90;;;;;;4980408;28;20021;-86
2023/04/02 00:05:49;;;;;;;2.47;2.28;;;8.50;99.90;;;;;;4985218;28;20267;-87
2023/04/02 00:08:37;;;;;;;2.55;2.22;;;8.40;99.90;;;;;;4994621;28;20478;-84
2023/04/02 00:11:04;;;;;;;2.17;1.98;;;8.40;99.90;;;;;;4984777;28;20023;-84
2023/04/02 00:13:33;;;;;;;1.85;1.75;;;8.40;99.90;;;;;;4981236;28;20080;-85
2023/04/02 00:16:02;;;;;;;1.88;1.77;;;8.40;99.90;;;;;;4993930;28;20493;-85
2023/04/02 00:18:28;;;;;;;3.30;2.05;;;8.40;99.90;;;;;;4985769;28;20019;-85
2023/04/02 00:20:59;;;;;;;2.28;2.03;;;8.40;99.90;;;;;;4995847;28;20049;-85
2023/04/02 00:23:27;;;;;;;6.43;2.22;;;8.40;99.90;;;;;;4994150;28;20092;-85
2023/04/02 00:25:52;;;;;;;6.32;2.25;;;8.40;99.90;;;;;;4983546;28;20033;-85
2023/04/02 00:28:21;;;;;;;2.75;2.55;;;8.40;99.90;;;;;;4985856;28;20277;-85
2023/04/02 00:30:57;;;;;;;2.83;2.63;;;8.50;99.90;;;;;;4984151;28;20029;-86
2023/04/02 00:33:26;;;;;;;2.60;2.40;;;8.30;99.90;;;;;;4996601;28;20258;-85
2023/04/02 00:35:53;;;;;;;2.80;2.58;;;8.30;99.90;;;;;;4982222;28;20091;-84
2023/04/02 00:38:27;;;;;;;2.38;2.17;;;8.20;99.90;;;;;;4977777;28;20502;-84
2023/04/02 00:40:55;;;;;;;2.53;2.33;;;8.10;99.90;;;;;;4987171;28;20036;-84
2023/04/02 00:43:29;;;;;;;2.50;2.30;;;8.10;99.90;;;;;;4997946;28;20022;-85
2023/04/02 00:46:12;;;;;;;2.17;1.98;;;8.10;99.90;;;;;;4984942;28;20165;-84
2023/04/02 00:49:06;;;;;;;2.10;1.90;;;8.10;99.90;;;;;;4990077;28;20045;-86
2023/04/02 00:51:40;;;;;;;2.85;2.10;;;8.10;99.90;;;;;;4984982;28;20474;-85
2023/04/02 00:54:14;;;;;;;2.53;2.20;;;8.10;99.90;;;;;;4985571;28;20026;-86
2023/04/02 00:56:45;;;;;;;2.30;2.10;;;8.10;99.90;;;;;;4984314;28;20026;-84
2023/04/02 00:59:42;;;;;;;2.00;1.90;;;8.10;99.90;;;;;;4983431;28;20026;-84
2023/04/02 01:02:30;;;;;;;2.00;1.90;;;8.10;99.90;;;;;;4985731;28;20029;-84
2023/04/02 01:05:01;;;;;;;2.17;1.90;;;8.10;99.90;;;;;;4996327;28;20018;-83
2023/04/02 01:08:06;;;;;;;2.30;2.10;;;8.10;99.90;;;;;;5003968;28;20134;-86
2023/04/02 01:10:46;;;;;;;2.17;1.98;;;8.00;99.90;;;;;;4995197;28;20037;-85
2023/04/02 01:13:40;;;;;;;2.63;2.10;;;8.00;99.90;;;;;;4997265;28;20045;-85
2023/04/02 01:16:18;;;;;;;2.40;2.20;;;8.00;99.90;;;;;;4978664;28;20449;-84
2023/04/02 01:18:49;;;;;;;5.55;2.58;;;8.00;99.90;;;;;;4973223;28;20037;-84
2023/04/02 01:21:30;;;;;;;5.38;2.63;;;8.00;99.90;;;;;;4993464;28;20101;-85
2023/04/02 01:24:06;;;;;;;3.35;2.58;;;8.00;99.90;;;;;;4979566;28;20072;-83
2023/04/02 01:26:50;;;;;;;2.40;2.20;;;8.00;99.90;;;;;;4983887;28;20171;-85
2023/04/02 01:29:31;;;;;;;2.55;2.38;;;7.90;99.90;;;;;;4981752;28;20562;-85
2023/04/02 01:32:04;;;;;;;2.95;2.40;;;7.90;99.90;;;;;;4977847;28;20062;-84
2023/04/02 01:34:32;;;;;;;;;;;7.90;99.90;;;;;;4985304;28;20052;-84
2023/04/02 01:37:35;;;;;;;2.92;2.17;;;7.80;99.90;;;;;;4984287;28;19928;-85
2023/04/02 01:40:35;;;;;;;5.07;2.55;;;7.80;99.90;;;;;;4993483;28;20033;-84
2023/04/02 01:43:37;;;;;;;2.97;2.30;;;7.90;99.90;;;;;;4993390;28;20019;-84
2023/04/02 01:46:30;;;;;;;2.50;2.30;;;7.80;99.90;;;;;;4997733;28;20029;-82
2023/04/02 01:48:59;;;;;;;2.72;2.45;;;7.70;99.90;;;;;;4993195;28;20096;-86
2023/04/02 01:51:45;;;;;;;2.72;2.30;;;7.80;99.90;;;;;;4994866;28;20041;-84
2023/04/02 01:54:14;;;;;;;3.05;2.85;;;7.70;99.90;;;;;;4984521;28;20547;-85
2023/04/02 01:56:41;;;;;;;3.45;3.20;;;7.70;99.90;;;;;;4996420;28;20033;-82
2023/04/02 01:59:09;;;;;;;3.90;2.92;;;7.80;99.90;;;;;;4982773;28;20069;-84
2023/04/02 02:01:41;;;;;;;4.00;2.90;;;7.80;99.90;;;;;;4981321;28;20121;-84
2023/04/02 02:04:12;;;;;;;3.60;3.30;;;7.70;99.90;;;;;;4998308;28;20019;-84
2023/04/02 02:06:38;;;;;;;3.55;3.25;;;7.70;99.90;;;;;;4995805;28;20019;-86
2023/04/02 02:09:11;;;;;;;5.10;3.20;;;7.60;99.90;;;;;;4977898;28;20407;-86
2023/04/02 02:11:38;;;;;;;3.45;3.15;;;7.60;99.90;;;;;;4979746;28;20096;-84
2023/04/02 02:14:25;;;;;;;4.07;3.35;;;7.60;99.90;;;;;;4980395;28;20026;-84
2023/04/02 02:16:56;;;;;;;3.30;3.00;;;7.50;99.90;;;;;;4979047;28;21087;-84
2023/04/02 02:19:24;;;;;;;4.50;3.33;;;7.50;99.90;;;;;;4979049;28;20538;-84
2023/04/02 02:22:01;;;;;;;3.53;3.17;;;7.50;99.90;;;;;;4984984;28;20213;-84
2023/04/02 02:24:32;;;;;;;3.33;3.03;;;7.50;99.90;;;;;;4978616;28;20068;-84
2023/04/02 02:27:13;;;;;;;6.05;3.47;;;7.50;99.90;;;;;;4986397;28;20022;-83
2023/04/02 02:29:40;;;;;;;3.38;3.08;;;7.40;99.90;;;;;;5007335;28;20017;-85
2023/04/02 02:32:09;;;;;;;5.53;3.75;;;7.30;99.90;;;;;;4989337;28;20030;-85
2023/04/02 02:34:47;;;;;;;8.32;3.50;;;7.30;99.90;;;;;;5005051;28;20018;-86
2023/04/02 02:37:21;;;;;;;4.28;3.60;;;7.30;99.90;;;;;;5019496;28;20190;-85
2023/04/02 02:39:55;;;;;;;3.80;3.40;;;7.30;99.90;;;;;;5007237;28;20228;-84
2023/04/02 02:42:38;;;;;;;3.97;3.47;;;7.30;99.90;;;;;;4996123;28;20025;-86
2023/04/02 02:45:11;;;;;;;4.47;3.28;;;7.40;99.90;;;;;;4980091;28;20498;-86
2023/04/02 02:47:39;;;;;;;4.28;2.80;;;7.40;99.90;;;;;;4995530;28;20049;-86
2023/04/02 02:50:11;;;;;;;4.45;3.22;;;7.40;99.90;;;;;;4985348;28;20486;-86
2023/04/02 02:52:41;;;;;;;6.15;2.92;;;7.30;99.90;;;;;;4975708;28;20057;-86
2023/04/02 02:55:17;;;;;;;5.82;3.08;;;7.30;99.90;;;;;;4995061;28;20026;-87
2023/04/02 02:57:59;;;;;;;3.40;3.00;;;7.40;99.90;;;;;;4997150;28;20114;-84
2023/04/02 03:00:26;;;;;;;4.25;3.38;;;7.30;99.90;;;;;;4990410;28;20123;-85
2023/04/02 03:02:55;;;;;;;4.50;3.15;;;7.30;99.90;;;;;;4976501;28;20033;-84
2023/04/02 03:05:24;;;;;;;3.40;3.17;;;7.30;99.90;;;;;;4984237;28;20050;-84
2023/04/02 03:07:52;;;;;;;3.97;3.60;;;7.30;99.90;;;;;;4983870;28;20373;-84
2023/04/02 03:11:01;;;;;;;4.05;3.72;;;7.30;99.90;;;;;;4985264;28;20029;-85
2023/04/02 03:13:54;;;;;;;4.85;3.97;;;7.30;99.90;;;;;;4889938;29;20067;-85
2023/04/02 03:16:23;;;;;;;5.40;4.88;;;7.30;99.90;;;;;;4887287;29;20583;-86
2023/04/02 03:19:09;;;;;;;7.53;4.45;;;7.30;99.90;;;;;;4969172;28;20069;-86
2023/04/02 03:21:53;;;;;;;5.50;3.95;;;7.30;99.90;;;;;;4996861;28;20030;-85
2023/04/02 03:24:31;;;;;;;4.90;4.22;;;7.30;99.90;;;;;;4995002;28;20418;-85
2023/04/02 03:27:05;;;;;;;6.53;4.90;;;7.30;99.90;;;;;;4984256;28;20026;-85
2023/04/02 03:29:35;;;;;;;6.15;4.65;;;7.30;99.90;;;;;;4981298;28;20349;-85
2023/04/02 03:32:11;;;;;;;7.22;4.38;;;7.20;99.90;;;;;;4998488;28;20018;-87
2023/04/02 03:34:43;;;;;;;5.75;4.93;;;7.10;99.90;;;;;;4981230;28;20330;-86
2023/04/02 03:37:18;;;;;;;7.75;5.50;;;7.10;99.90;;;;;;4994812;28;20043;-85
2023/04/02 03:39:46;;;;;;;6.88;4.95;;;7.00;99.90;;;;;;4984991;28;20037;-85
2023/04/02 03:42:18;;;;;;;14.27;5.05;;;6.90;99.90;;;;;;4981999;28;20025;-85
2023/04/02 03:45:08;;;;;;;10.55;4.53;;;6.90;99.90;;;;;;4996739;28;20017;-85
2023/04/02 03:48:01;;;;;;;8.50;4.97;;;6.90;99.90;;;;;;4998899;28;20509;-84
2023/04/02 03:50:27;;;;;;;8.65;5.35;;;6.90;99.90;;;;;;4995367;28;20466;-85
2023/04/02 03:52:52;;;;;;;8.82;4.93;;;6.90;99.90;;;;;;4978149;28;20027;-85
2023/04/02 03:55:23;;;;;;;10.02;4.53;;;6.90;99.90;;;;;;4984062;28;20030;-84
2023/04/02 03:58:00;;;;;;;4.85;4.30;;;6.80;99.90;;;;;;4996284;28;20306;-84
2023/04/02 04:00:51;;;;;;;6.03;4.82;;;6.80;99.90;;;;;;4982374;28;20022;-85
2023/04/02 04:03:19;;;;;;;9.70;5.03;;;6.80;99.90;;;;;;4985755;28;20023;-85
2023/04/02 04:05:49;;;;;;;11.10;5.22;;;6.70;99.90;;;;;;4999842;28;20017;-85
2023/04/02 04:08:25;;;;;;;8.90;4.82;;;6.70;99.90;;;;;;4998092;28;20026;-85
2023/04/02 04:10:59;;;;;;;10.07;4.47;;;6.70;99.90;;;;;;4997215;28;20541;-84
2023/04/02 04:13:40;;;;;;;8.65;4.30;;;6.60;99.90;;;;;;5002620;28;20025;-84
2023/04/02 04:16:13;;;;;;;4.95;3.72;;;6.60;99.90;;;;;;4987722;28;20034;-84
2023/04/02 04:18:46;;;;;;;9.45;4.25;;;6.50;99.90;;;;;;4986752;28;20466;-83
2023/04/02 04:21:28;;;;;;;;;;;6.40;99.90;;;;;;4985351;28;20037;-83
2023/04/02 04:23:54;;;;;;;7.80;3.83;;;6.50;99.90;;;;;;4994200;28;19932;-85
2023/04/02 04:26:29;;;;;;;6.68;4.10;;;6.50;99.90;;;;;;4985373;28;20246;-85
2023/04/02 04:29:13;;;;;;;5.20;4.10;;;6.50;99.90;;;;;;4986256;28;20052;-85
2023/04/02 04:31:48;;;;;;;5.70;4.00;;;6.50;99.90;;;;;;4982419;28;20025;-86
2023/04/02 04:34:30;;;;;;;5.32;3.58;;;6.50;99.90;;;;;;4999888;28;20032;-87
2023/04/02 04:37:00;;;;;;;9.85;4.40;;;6.50;99.90;;;;;;4998921;28;20433;-84
2023/04/02 04:39:44;;;;;;;9.38;4.20;;;6.60;99.90;;;;;;4985914;28;20490;-85
2023/04/02 04:42:21;;;;;;;5.93;4.18;;;6.50;99.90;;;;;;4985985;28;20027;-84
2023/04/02 04:44:54;;;;;;;6.20;3.95;;;6.50;99.90;;;;;;4994382;28;20023;-85
2023/04/02 04:47:26;;;;;;;8.38;4.05;;;6.60;99.90;;;;;;4978586;28;20037;-85
2023/04/02 04:49:57;;;;;;;7.32;3.80;;;6.60;99.90;;;;;;4979312;28;20032;-84
2023/04/02 04:52:31;;;;;;;10.27;4.00;;;6.60;99.90;;;;;;4992016;28;20169;-85
2023/04/02 04:54:57;;;;;;;7.35;3.60;;;6.60;99.90;;;;;;4999757;28;20095;-85
2023/04/02 04:57:35;;;;;;;4.68;3.50;;;6.50;99.90;;;;;;4985665;28;20481;-84
2023/04/02 05:00:18;;;;;;;5.03;3.88;;;6.50;99.90;;;;;;4984239;28;20124;-85
2023/04/02 05:02:57;;;;;;;9.90;3.65;;;6.40;99.90;;;;;;4978794;28;20030;-85
2023/04/02 05:05:32;;;;;;;6.45;3.10;;;6.40;99.90;;;;;;4993343;28;20034;-85
2023/04/02 05:08:03;;;;;;;3.55;3.25;;;6.30;99.90;;;;;;4979031;28;20030;-86
2023/04/02 05:10:49;;;;;;;5.70;3.03;;;6.30;99.90;;;;;;4978461;28;20105;-87
2023/04/02 05:13:50;;;;;;;11.15;4.05;;;6.30;99.90;;;;;;4977225;28;20113;-84
2023/04/02 05:16:27;;;;;;;13.10;4.18;;;6.30;99.90;;;;;;4978419;28;20163;-84
2023/04/02 05:19:15;;;;;;;6.05;3.70;;;6.30;99.90;;;;;;4995196;28;20038;-85
2023/04/02 05:21:52;;;;;;;5.38;3.88;;;6.30;99.90;;;;;;4994355;28;20018;-85
2023/04/02 05:24:47;;;;;;;9.40;4.13;;;6.30;99.90;;;;;;4972856;28;20041;-84
2023/04/02 05:27:38;;;;;;;10.15;3.75;;;6.20;99.90;;;;;;4981585;28;20105;-84
2023/04/02 05:30:30;;;;;;;8.38;3.53;;;6.20;99.90;;;;;;4977021;28;20025;-85
2023/04/02 05:33:17;;;;;;;12.02;3.83;;;6.20;99.90;;;;;;4985461;28;20022;-84
2023/04/02 05:35:46;;;;;;;13.15;4.53;;;6.10;99.90;;;;;;4983833;28;20113;-85
2023/04/02 05:38:25;;;;;;;7.43;3.50;;;6.10;99.90;;;;;;4984220;28;20026;-87
2023/04/02 05:41:02;;;;;;;14.55;3.78;;;6.10;99.90;;;;;;4985516;28;20029;-85
2023/04/02 05:43:32;;;;;;;7.75;3.70;;;6.20;99.90;;;;;;4994725;28;20014;-86
2023/04/02 05:46:07;;;;;;;6.38;3.42;;;6.10;99.90;;;;;;4994980;28;20014;-85
2023/04/02 05:48:38;;;;;;;5.57;3.30;;;6.10;99.90;;;;;;4992933;28;20494;-85
2023/04/02 05:51:08;;;;;;;12.52;3.70;;;6.20;99.90;;;;;;4995505;28;20094;-85
2023/04/02 05:53:35;;;;;;;8.10;3.50;;;6.10;99.90;;;;;;4992486;28;20045;-85
2023/04/02 05:56:19;;;;;;;8.02;3.30;;;6.10;99.90;;;;;;4996277;28;20026;-84
2023/04/02 05:59:07;;;;;;;7.70;3.40;;;6.10;99.90;;;;;;4975075;28;20053;-84
2023/04/02 06:01:38;;;;;;;5.20;3.22;;;6.10;99.90;;;;;;4981626;28;20150;-84
2023/04/02 06:04:23;;;;;;;9.07;3.65;;;6.10;99.90;;;;;;4993700;28;20014;-84
2023/04/02 06:06:59;;;;;;;8.38;3.55;;;6.10;99.90;;;;;;4981122;28;20058;-85
2023/04/02 06:09:44;;;;;;;4.93;2.83;;;6.00;99.90;;;;;;5001729;28;20423;-85
2023/04/02 06:12:17;;;;;;;9.63;3.28;;;6.00;99.90;;;;;;4992583;28;20027;-86
2023/04/02 06:14:43;;;;;;;;;;;6.00;99.90;;;;;;4993545;28;20339;-82
2023/04/02 06:17:15;;;;;;;7.28;3.25;;;6.00;99.90;;;;;;4997553;28;19972;-85
2023/04/02 06:19:43;;;;;;;9.30;3.38;;;6.00;99.90;;;;;;4993281;28;20018;-85
2023/04/02 06:22:24;;;;;;;8.32;3.25;;;6.00;99.90;;;;;;4983038;28;20034;-85
2023/04/02 06:24:56;;;;;;;5.82;2.72;;;6.00;99.90;;;;;;4983713;28;20103;-84
2023/04/02 06:27:24;;;;;;;6.25;3.08;;;5.90;99.90;;;;;;4983453;28;20030;-84
2023/04/02 06:29:54;;;;;;;8.10;3.30;;;5.90;99.90;;;;;;4983421;28;20041;-84
2023/04/02 06:32:24;;;;;;;8.85;3.45;;;5.90;99.90;;;;;;4979788;28;20037;-85
2023/04/02 06:34:50;;;;;;;5.55;3.70;;;5.90;99.90;;;;;;4992071;28;20429;-84
2023/04/02 06:37:33;;;;;;;13.23;3.78;;;5.80;99.90;;;;;;4995315;28;20045;-84
2023/04/02 06:40:00;;;;;;;6.32;3.65;;;5.80;99.90;;;;;;4994927;28;20022;-84
2023/04/02 06:42:36;;;;;;;5.85;3.35;;;5.80;99.90;;;;;;4983855;28;20034;-84
2023/04/02 06:45:03;;;;;;;10.82;3.80;;;5.80;99.90;;;;;;4977619;28;20026;-86
2023/04/02 06:47:31;;;;;;;8.52;3.78;;;5.90;99.90;;;;;;4990280;28;20462;-84
2023/04/02 06:50:19;;;;;;;8.60;3.90;;;5.90;99.90;;;;;;4997277;28;20068;-84
2023/04/02 06:52:54;;;;;;;11.85;3.70;;;5.90;99.90;;;;;;4997498;28;20581;-85
2023/04/02 06:55:19;;;;;;;5.50;3.20;;;5.90;99.90;;;;;;4981102;28;20040;-84
2023/04/02 06:57:48;;;;;;;4.68;2.42;;;5.90;99.90;;;;;;4985567;28;20101;-84
2023/04/02 07:00:37;;;;;;;4.95;2.88;;;5.90;99.90;;;;;;4993430;28;20025;-86
2023/04/02 07:03:07;;;;;;;8.18;3.17;;;5.90;99.90;;;;;;4982996;28;20037;-85
2023/04/02 07:05:33;;;;;;;5.38;2.45;;;6.00;99.90;;;;;;5000403;28;20150;-87
2023/04/02 07:07:58;;;;;;;10.02;2.60;;;6.00;99.90;;;;;;4991484;28;20029;-87
2023/04/02 07:10:24;;;;;;;7.47;3.15;;;6.10;99.90;;;;;;4999129;28;20177;-87
2023/04/02 07:12:49;;;;;;;8.18;2.65;;;6.10;99.90;;;;;;5000845;28;20021;-88
2023/04/02 07:15:18;;;;;;;7.93;2.58;;;6.00;99.90;;;;;;4999914;28;20034;-88
2023/04/02 07:17:44;;;;;;;6.25;2.72;;;6.10;99.90;;;;;;5013231;28;20026;-88
2023/04/02 07:20:40;;;;;;;6.88;2.38;;;6.00;99.90;;;;;;4996862;28;20010;-86
2023/04/02 07:23:07;;;;;;;4.95;2.25;;;6.00;99.90;;;;;;4993421;28;20038;-86
2023/04/02 07:25:32;;;;;;;6.28;2.17;;;6.10;99.90;;;;;;5009164;28;20112;-87
2023/04/02 07:27:58;;;;;;;6.50;2.85;;;6.00;99.90;;;;;;4992785;28;20057;-87
2023/04/02 07:30:23;;;;;;;7.35;2.50;;;6.00;99.90;;;;;;5004473;28;20018;-87
2023/04/02 07:32:49;;;;;;;6.90;2.28;;;6.00;99.90;;;;;;5007763;28;20078;-89
2023/04/02 07:35:15;;;;;;;3.67;2.10;;;6.10;99.90;;;;;;4993178;28;20026;-87
2023/04/02 07:37:41;;;;;;;6.45;2.30;;;6.10;99.90;;;;;;4990141;28;20088;-88
2023/04/02 07:40:21;;;;;;;4.90;2.03;;;6.10;99.90;;;;;;4991065;28;20014;-88
2023/04/02 07:42:47;;;;;;;5.15;2.15;;;6.10;99.90;;;;;;5000871;28;20010;-87
2023/04/02 07:45:13;;;;;;;8.85;2.15;;;6.10;99.90;;;;;;5008406;28;20026;-87
2023/04/02 07:47:40;;;;;;;4.35;1.80;;;6.10;99.90;;;;;;4995439;28;20091;-87
2023/04/02 07:50:07;;;;;;;10.40;1.80;;;6.10;99.90;;;;;;4995697;28;20025;-88
2023/04/02 07:52:41;;;;;;;4.03;2.05;;;6.10;99.90;;;;;;4997362;28;20105;-87
2023/04/02 07:55:11;;;;;;;6.70;1.65;;;6.20;99.90;;;;;;4999847;28;20050;-88
2023/04/02 07:57:40;;;;;;;5.07;2.42;;;6.20;99.90;;;;;;4984736;28;20049;-88
2023/04/02 08:00:13;;;;;;;6.47;2.63;;;6.20;99.90;;;;;;4993176;28;20030;-87
2023/04/02 08:02:38;;;;;;;5.70;1.83;;;6.30;99.90;;;;;;4986027;28;20030;-89
2023/04/02 08:05:04;;;;;;;4.22;1.90;;;6.30;99.90;;;;;;4991830;28;20037;-89
2023/04/02 08:07:30;;;;;;;7.40;2.30;;;6.30;99.90;;;;;;4981663;28;20019;-85
2023/04/02 08:09:55;;;;;;;3.05;2.53;;;6.40;99.90;;;;;;5000220;28;20084;-85
2023/04/02 08:12:21;;;;;;;5.00;2.17;;;6.50;99.90;;;;;;4998258;28;20035;-84
2023/04/02 08:14:47;;;;;;;6.30;2.10;;;6.60;99.90;;;;;;4981475;28;20044;-86
2023/04/02 08:17:12;;;;;;;6.97;1.65;;;6.70;99.90;;;;;;4993211;28;20084;-85
2023/04/02 08:19:38;;;;;;;229.30;84.20;;;6.70;99.90;;;;;;4983445;28;20392;-86
2023/04/02 08:22:04;;;;;;;4.90;2.50;;;6.70;99.90;;;;;;4993403;28;20032;-85
2023/04/02 08:24:29;;;;;;;5.55;2.00;;;6.70;99.90;;;;;;4983162;28;20026;-84
2023/04/02 08:26:55;;;;;;;5.70;2.03;;;6.70;99.90;;;;;;4998719;28;20018;-86
2023/04/02 08:29:21;;;;;;;7.80;2.58;;;6.70;99.90;;;;;;5006814;28;20102;-88
2023/04/02 08:31:47;;;;;;;6.18;3.10;;;6.70;99.90;;;;;;5001299;28;20009;-87
2023/04/02 08:34:12;;;;;;;8.63;4.40;;;6.80;99.90;;;;;;5006858;28;20046;-87
2023/04/02 08:36:40;;;;;;;5.78;2.17;;;6.80;99.90;;;;;;5009427;28;20033;-87
2023/04/02 08:39:10;;;;;;;8.20;2.20;;;6.80;99.90;;;;;;5000818;28;20033;-88
2023/04/02 08:41:43;;;;;;;4.90;1.75;;;6.80;99.90;;;;;;5004710;28;20065;-89
2023/04/02 08:44:27;;;;;;;;;;;6.80;99.90;;;;;;5006678;28;20129;-88
2023/04/02 08:47:06;;;;;;;7.35;2.13;;;6.70;99.90;;;;;;5003219;28;19898;-87
2023/04/02 08:49:56;;;;;;;6.68;1.95;;;6.70;99.90;;;;;;5002177;28;20009;-87
2023/04/02 08:52:32;;;;;;;7.38;1.77;;;6.70;99.90;;;;;;4986511;28;20462;-88
2023/04/02 08:55:03;;;;;;;9.80;2.97;;;6.70;99.90;;;;;;4987990;28;20022;-87
2023/04/02 08:57:53;;;;;;;6.78;2.10;;;6.60;99.90;;;;;;4998086;28;20026;-87
2023/04/02 09:00:44;;;;;;;5.78;1.90;;;6.70;99.90;;;;;;4991797;28;20609;-87
2023/04/02 09:03:18;;;;;;;5.93;2.08;;;6.90;99.90;;;;;;4995463;28;20389;-87
2023/04/02 09:05:46;;;;;;;7.88;1.90;;;7.00;99.90;;;;;;4998594;28;20024;-88
2023/04/02 09:08:38;;;;;;;4.53;1.70;;;7.10;99.90;;;;;;4985958;28;20030;-87
2023/04/02 09:11:29;;;;;;;4.68;1.50;;;7.00;99.90;;;;;;4982622;28;20058;-87
2023/04/02 09:14:00;;;;;;;6.75;2.03;;;6.90;99.90;;;;;;4978754;28;20102;-87
2023/04/02 09:16:36;;;;;;;190.70;63.22;;;6.90;99.90;;;;;;4979201;28;20182;-89
2023/04/02 09:19:16;;;;;;;4.22;2.03;;;6.80;99.90;;;;;;4989075;28;20324;-88
2023/04/02 09:22:07;;;;;;;5.05;1.42;;;6.80;99.90;;;;;;4985651;28;20022;-89
2023/04/02 09:24:34;;;;;;;3.80;1.65;;;6.90;99.90;;;;;;4975895;28;20077;-88
2023/04/02 09:27:00;;;;;;;1.52;1.20;;;6.90;99.90;;;;;;4983641;28;20068;-88
2023/04/02 09:29:43;;;;;;;4.65;1.98;;;7.00;99.90;;;;;;4982773;28;20029;-88
2023/04/02 09:32:26;;;;;;;5.75;1.40;;;7.00;99.90;;;;;;4983491;28;20056;-88
2023/04/02 09:35:11;;;;;;;4.47;1.20;;;7.00;99.90;;;;;;4972036;28;20843;-87
2023/04/02 09:37:38;;;;;;;3.63;1.63;;;7.00;99.90;;;;;;4981279;28;20026;-88
2023/04/02 09:40:27;;;;;;;2.85;1.60;;;7.00;99.90;;;;;;4979782;28;20023;-86
2023/04/02 09:43:11;;;;;;;1.88;1.60;;;7.10;99.90;;;;;;4989741;28;20073;-87
2023/04/02 09:45:38;;;;;;;4.03;1.60;;;7.10;99.90;;;;;;4990466;28;20016;-89
2023/04/02 09:48:25;;;;;;;3.00;1.52;;;7.30;99.90;;;;;;4978525;28;20034;-88
2023/04/02 09:51:03;;;;;;;4.28;1.42;;;7.40;99.90;;;;;;4973712;28;20023;-88
2023/04/02 09:53:32;;;;;;;4.22;1.60;;;7.40;99.90;;;;;;4976946;28;20022;-87
2023/04/02 09:56:20;;;;;;;3.50;1.65;;;7.30;99.90;;;;;;4979869;28;20027;-87
2023/04/02 09:59:14;;;;;;;117.40;37.25;;;7.30;99.90;;;;;;4985127;28;20367;-85
2023/04/02 10:01:46;;;;;;;4.35;1.90;;;7.40;99.90;;;;;;4980156;28;20026;-89
2023/04/02 10:04:43;;;;;;;4.45;1.42;;;7.60;99.90;;;;;;4971820;28;20031;-87
2023/04/02 10:07:33;;;;;;;4.30;1.65;;;7.60;99.90;;;;;;4987252;28;20061;-87
2023/04/02 10:10:29;;;;;;;5.80;1.70;;;7.70;99.90;;;;;;5001004;28;20011;-87
2023/04/02 10:13:01;;;;;;;4.97;1.65;;;7.70;99.90;;;;;;4984950;28;20038;-88
2023/04/02 10:15:56;;;;;;;3.63;1.77;;;7.70;99.90;;;;;;4977686;28;20038;-88
2023/04/02 10:18:30;;;;;;;4.38;1.23;;;7.70;99.90;;;;;;4982164;28;20347;-89
2023/04/02 10:21:00;;;;;;;11.82;1.70;;;7.70;99.90;;;;;;4979667;28;20030;-88
2023/04/02 10:23:29;;;;;;;3.88;1.52;;;7.70;99.90;;;;;;4979646;28;20267;-88
2023/04/02 10:26:10;;;;;;;6.63;1.60;;;7.70;99.90;;;;;;4995394;28;20518;-89
2023/04/02 10:29:04;;;;;;;3.20;1.58;;;7.70;99.90;;;;;;4985613;28;20195;-85
2023/04/02 10:31:49;;;;;;;9.88;1.60;;;7.50;99.90;;;;;;4970633;28;20023;-87
2023/04/02 10:34:44;;;;;;;2.80;1.40;;;7.50;99.90;;;;;;4972806;28;20121;-88
2023/04/02 10:37:38;;;;;;;4.18;1.40;;;7.50;99.90;;;;;;4956210;28;20039;-87
2023/04/02 10:40:27;;;;;;;1.60;1.27;;;7.60;99.90;;;;;;4987790;28;20100;-89
2023/04/02 10:43:08;;;;;;;2.75;1.00;;;7.50;99.90;;;;;;4988790;28;20015;-89
2023/04/02 10:45:58;;;;;;;3.15;1.40;;;7.60;99.90;;;;;;4968227;28;20031;-90
2023/04/02 10:48:42;;;;;;;5.18;1.45;;;7.60;99.90;;;;;;4965422;28;20022;-87
2023/04/02 10:51:27;;;;;;;1.88;1.13;;;7.60;99.90;;;;;;4966181;28;20031;-87
2023/04/02 10:54:04;;;;;;;119.00;38.80;;;7.70;99.90;;;;;;4971687;28;20475;-88
2023/04/02 10:56:31;;;;;;;18.63;8.07;;;7.80;99.90;;;;;;4960109;28;20668;-84
2023/04/02 10:59:05;;;;;;;2.80;1.67;;;7.80;99.90;;;;;;4961943;28;20110;-90
2023/04/02 11:01:33;;;;;;;3.28;1.25;;;7.80;99.90;;;;;;4974010;28;20026;-94
2023/04/02 11:04:16;;;;;;;6.03;1.20;;;7.90;99.90;;;;;;4967012;28;20026;-87
2023/04/02 11:07:06;;;;;;;2.88;1.38;;;7.90;99.90;;;;;;4968788;28;20102;-90
2023/04/02 11:09:40;;;;;;;2.47;1.60;;;7.90;99.90;;;;;;5120234;23;20064;-88
2023/04/02 11:12:06;;;;;;;3.13;1.20;;;8.00;99.90;;;;;;4998694;28;20490;-85
2023/04/02 11:14:32;;;;;;;1.33;1.23;;;8.00;99.90;;;;;;4984163;28;20052;-85
2023/04/02 11:17:01;;;;;;;2.20;1.40;;;8.10;99.90;;;;;;4998306;28;20369;-86
2023/04/02 11:19:35;;;;;;;2.55;1.45;;;8.10;99.90;;;;;;4986927;28;20030;-84
2023/04/02 11:22:02;;;;;;;4.00;1.50;;;8.30;99.90;;;;;;4981912;28;20018;-85
2023/04/02 11:24:36;;;;;;;4.38;1.48;;;8.50;99.90;;;;;;4993431;28;20018;-90
2023/04/02 11:27:10;;;;;;;6.68;1.65;;;8.40;99.90;;;;;;4985661;28;20028;-89
2023/04/02 11:30:03;;;;;;;5.20;1.40;;;8.50;99.90;;;;;;4985929;28;20033;-84
2023/04/02 11:32:41;;;;;;;5.60;1.63;;;8.70;99.90;;;;;;4971895;28;20482;-84
2023/04/02 11:35:36;;;;;;;5.82;1.67;;;8.90;99.90;;;;;;4995434;28;20532;-84
2023/04/02 11:38:21;;;;;;;2.40;1.33;;;8.90;99.90;;;;;;4976957;28;20077;-85
2023/04/02 11:41:13;;;;;;;7.85;2.03;;;8.80;99.90;;;;;;4997867;28;20414;-84
2023/04/02 11:43:40;;;;;;;9.00;2.08;;;9.00;99.90;;;;;;4940306;28;20042;-89
2023/04/02 11:46:17;;;;;;;4.95;1.80;;;9.00;99.90;;;;;;4923593;28;20086;-83
2023/04/02 11:48:45;;;;;;;4.28;1.52;;;9.10;99.90;;;;;;4926597;28;20121;-90
2023/04/02 11:51:34;;;;;;;6.05;1.67;;;9.20;99.90;;;;;;4926016;28;20194;-90
2023/04/02 11:54:00;;;;;;;4.50;1.27;;;9.30;99.90;;;;;;4922420;28;20090;-90
2023/04/02 11:56:43;;;;;;;6.18;1.50;;;9.30;99.90;;;;;;4925419;28;20440;-92
2023/04/02 11:59:27;;;;;;;63.80;21.20;;;9.50;99.90;;;;;;4930703;29;20043;-86
2023/04/02 12:02:04;;;;;;;11.70;5.38;;;9.80;99.90;;;;;;4930530;29;20031;-91
2023/04/02 12:04:45;;;;;;;3.88;1.77;;;10.00;99.90;;;;;;4949377;28;20027;-85
2023/04/02 12:07:36;;;;;;;6.28;1.52;;;10.20;99.90;;;;;;4942791;28;20043;-83
2023/04/02 12:10:05;;;;;;;1.85;1.25;;;10.20;99.90;;;;;;4929136;28;20164;-86
2023/04/02 12:12:36;;;;;;;4.68;1.48;;;10.20;99.90;;;;;;4944562;28;20039;-82
2023/04/02 12:15:20;;;;;;;2.78;1.60;;;10.20;99.90;;;;;;4930376;29;20035;-84
2023/04/02 12:17:46;;;;;;;2.67;1.58;;;10.20;99.90;;;;;;4921611;28;20389;-82
2023/04/02 12:20:20;;;;;;;7.47;1.90;;;10.30;99.90;;;;;;4943079;28;20049;-84
2023/04/02 12:22:52;;;;;;;2.40;1.60;;;10.50;99.90;;;;;;4982985;28;20018;-84
2023/04/02 12:25:38;;;;;;;3.50;1.20;;;10.60;99.90;;;;;;5003104;28;20026;-95
2023/04/02 12:28:19;;;;;;;4.63;1.30;;;10.90;99.90;;;;;;4990183;28;20050;-94
2023/04/02 12:30:46;;;;;;;2.45;1.27;;;11.50;99.90;;;;;;4992517;28;20022;-93
2023/04/02 12:33:21;;;;;;;2.78;1.23;;;11.50;99.90;;;;;;4993195;28;20034;-93
2023/04/02 12:35:49;;;;;;;3.72;1.75;;;11.90;99.90;;;;;;4979887;28;20126;-84
2023/04/02 12:38:21;;;;;;;237.82;94.95;;;12.00;99.90;;;;;;5000879;28;20061;-85
2023/04/02 12:40:58;;;;;;;5.20;2.85;;;12.10;99.90;;;;;;5002551;28;20137;-85
2023/04/02 12:43:30;;;;;;;3.20;1.25;;;12.00;99.90;;;;;;4984617;28;20026;-88
2023/04/02 12:46:04;;;;;;;4.55;1.42;;;11.90;99.90;;;;;;5001419;28;20014;-83
2023/04/02 12:48:31;;;;;;;5.05;1.23;;;11.80;99.90;;;;;;4979674;28;20209;-83
2023/04/02 12:50:58;;;;;;;4.88;1.60;;;11.70;99.90;;;;;;4982709;28;20029;-83
2023/04/02 12:53:37;;;;;;;2.72;1.60;;;11.80;99.90;;;;;;4984256;28;20160;-84
2023/04/02 12:56:04;;;;;;;5.07;1.65;;;12.10;99.90;;;;;;4975717;28;20041;-83
2023/04/02 12:58:37;;;;;;;5.88;1.55;;;12.70;99.30;;;;;;5004264;28;20312;-94
2023/04/02 13:01:15;;;;;;;6.95;1.45;;;13.40;99.40;;;;;;4985578;28;20021;-84
2023/04/02 13:03:42;;;;;;;4.57;1.63;;;14.00;97.00;;;;;;4979696;28;20058;-85
2023/04/02 13:06:22;;;;;;;4.35;1.60;;;14.60;95.90;;;;;;4993900;28;20029;-84
2023/04/02 13:08:52;;;;;;;1.52;1.42;;;14.80;94.10;;;;;;4979498;28;20029;-84
2023/04/02 13:11:21;;;;;;;3.33;1.50;;;15.10;92.60;;;;;;4985379;28;20022;-84
2023/04/02 13:13:52;;;;;;;3.22;1.35;;;15.30;92.20;;;;;;4986349;28;20029;-93
2023/04/02 13:16:18;;;;;;;4.90;1.45;;;15.60;90.70;;;;;;4993814;28;20451;-84
2023/04/02 13:18:46;;;;;;;7.25;1.73;;;15.60;90.00;;;;;;4983368;28;20113;-84
2023/04/02 13:21:18;;;;;;;3.08;1.80;;;15.50;91.30;;;;;;5002298;28;20045;-86
2023/04/02 13:23:47;;;;;;;4.03;1.50;;;15.20;88.70;;;;;;4983404;28;20076;-85
2023/04/02 13:26:27;;;;;;;3.67;1.73;;;15.50;89.20;;;;;;4982611;28;20045;-86
2023/04/02 13:29:20;;;;;;;4.28;2.22;;;15.30;88.80;;;;;;4981434;28;20041;-83
2023/04/02 13:31:49;;;;;;;7.82;1.80;;;14.90;90.40;;;;;;4997992;28;20285;-91
2023/04/02 13:34:15;;;;;;;218.60;82.85;;;14.30;88.40;;;;;;4981844;28;20031;-84
2023/04/02 13:36:41;;;;;;;234.93;88.72;;;14.40;89.80;;;;;;4996191;28;20377;-93
2023/04/02 13:39:07;;;;;;;17.95;8.05;;;14.90;89.50;;;;;;4982166;28;20203;-93